sensor_id;sensor_type;location;lat;lon;timestamp;temperature;humidity
45311;SHT31;68264;51.540;5.854;2023-07-30T00:05:00;15.2;84.7
45311;SHT31;68264;51.540;5.854;2023-07-30T00:21:25;15.0;84.7
45311;SHT31;68264;51.540;5.854;2023-07-30T00:37:25;15.0;84.2
45311;SHT31;68264;51.540;5.854;2023-07-30T00:51:24;14.8;85.2
45311;SHT31;68264;51.540;5.854;2023-07-30T01:05:23;14.5;86.4
45311;SHT31;68264;51.540;5.854;2023-07-30T01:19:22;14.4;86.8
45311;SHT31;68264;51.540;5.854;2023-07-30T01:33:21;14.4;86.7
45311;SHT31;68264;51.540;5.854;2023-07-30T01:47:49;14.4;87.0
45311;SHT31;68264;51.540;5.854;2023-07-30T02:02:09;14.3;87.4
45311;SHT31;68264;51.540;5.854;2023-07-30T02:16:37;14.2;88.0
45311;SHT31;68264;51.540;5.854;2023-07-30T02:30:56;14.1;88.7
45311;SHT31;68264;51.540;5.854;2023-07-30T02:44:55;14.2;88.8
45311;SHT31;68264;51.540;5.854;2023-07-30T02:58:54;14.1;89.2
45311;SHT31;68264;51.540;5.854;2023-07-30T03:12:53;14.4;89.5
45311;SHT31;68264;51.540;5.854;2023-07-30T03:27:21;14.6;89.3
45311;SHT31;68264;51.540;5.854;2023-07-30T03:42:09;14.8;88.9
45311;SHT31;68264;51.540;5.854;2023-07-30T03:56:29;14.9;89.0
45311;SHT31;68264;51.540;5.854;2023-07-30T04:10:28;15.0;88.8
45311;SHT31;68264;51.540;5.854;2023-07-30T04:25:28;15.1;88.6
45311;SHT31;68264;51.540;5.854;2023-07-30T04:40:27;15.2;88.9
45311;SHT31;68264;51.540;5.854;2023-07-30T04:54:27;15.3;88.8
45311;SHT31;68264;51.540;5.854;2023-07-30T05:09:27;15.6;88.4
45311;SHT31;68264;51.540;5.854;2023-07-30T05:24:26;15.7;87.9
45311;SHT31;68264;51.540;5.854;2023-07-30T05:39:59;15.8;88.1
45311;SHT31;68264;51.540;5.854;2023-07-30T05:56:30;15.9;88.1
45311;SHT31;68264;51.540;5.854;2023-07-30T06:11:58;16.1;87.9
45311;SHT31;68264;51.540;5.854;2023-07-30T06:26:47;16.2;87.7
45311;SHT31;68264;51.540;5.854;2023-07-30T06:41:06;16.2;87.6
45311;SHT31;68264;51.540;5.854;2023-07-30T06:55:05;16.4;86.9
45311;SHT31;68264;51.540;5.854;2023-07-30T07:09:04;16.6;86.2
45311;SHT31;68264;51.540;5.854;2023-07-30T07:24:04;16.9;85.4
45311;SHT31;68264;51.540;5.854;2023-07-30T07:40:05;17.0;85.0
45311;SHT31;68264;51.540;5.854;2023-07-30T07:55:05;17.8;81.3
45311;SHT31;68264;51.540;5.854;2023-07-30T08:10:05;18.2;81.1
45311;SHT31;68264;51.540;5.854;2023-07-30T08:25:04;17.7;81.5
45311;SHT31;68264;51.540;5.854;2023-07-30T08:39:33;18.1;78.9
45311;SHT31;68264;51.540;5.854;2023-07-30T08:53:52;18.1;79.9
45311;SHT31;68264;51.540;5.854;2023-07-30T09:08:20;18.0;78.3
45311;SHT31;68264;51.540;5.854;2023-07-30T09:23:08;18.1;77.6
45311;SHT31;68264;51.540;5.854;2023-07-30T09:37:27;18.5;76.4
45311;SHT31;68264;51.540;5.854;2023-07-30T09:51:26;18.6;71.9
45311;SHT31;68264;51.540;5.854;2023-07-30T10:05:26;18.9;75.9
45311;SHT31;68264;51.540;5.854;2023-07-30T10:19:25;19.6;70.8
45311;SHT31;68264;51.540;5.854;2023-07-30T10:33:24;19.6;72.4
45311;SHT31;68264;51.540;5.854;2023-07-30T10:47:52;19.2;71.6
45311;SHT31;68264;51.540;5.854;2023-07-30T11:02:11;19.8;70.3
45311;SHT31;68264;51.540;5.854;2023-07-30T11:16:10;19.6;69.4
45311;SHT31;68264;51.540;5.854;2023-07-30T11:30:09;18.5;74.2
45311;SHT31;68264;51.540;5.854;2023-07-30T11:44:08;18.1;78.8
45311;SHT31;68264;51.540;5.854;2023-07-30T11:58:07;17.6;84.0
45311;SHT31;68264;51.540;5.854;2023-07-30T12:12:06;19.3;82.3
45311;SHT31;68264;51.540;5.854;2023-07-30T12:26:05;20.2;70.9
45311;SHT31;68264;51.540;5.854;2023-07-30T12:41:05;20.2;63.7
45311;SHT31;68264;51.540;5.854;2023-07-30T12:56:05;19.8;67.1
45311;SHT31;68264;51.540;5.854;2023-07-30T13:10:04;20.4;66.5
45311;SHT31;68264;51.540;5.854;2023-07-30T13:24:03;20.4;65.7
45311;SHT31;68264;51.540;5.854;2023-07-30T13:38:02;21.1;65.8
45311;SHT31;68264;51.540;5.854;2023-07-30T13:52:01;20.2;63.7
45311;SHT31;68264;51.540;5.854;2023-07-30T14:06:00;21.1;63.7
45311;SHT31;68264;51.540;5.854;2023-07-30T14:21:00;20.9;62.8
45311;SHT31;68264;51.540;5.854;2023-07-30T14:36:00;21.5;58.8
45311;SHT31;68264;51.540;5.854;2023-07-30T14:50:28;20.6;61.6
45311;SHT31;68264;51.540;5.854;2023-07-30T15:04:47;21.0;60.6
45311;SHT31;68264;51.540;5.854;2023-07-30T15:18:46;21.0;63.3
45311;SHT31;68264;51.540;5.854;2023-07-30T15:33:47;21.6;60.2
45311;SHT31;68264;51.540;5.854;2023-07-30T15:49:47;21.3;58.6
45311;SHT31;68264;51.540;5.854;2023-07-30T16:05:48;21.3;56.2
45311;SHT31;68264;51.540;5.854;2023-07-30T16:20:48;21.2;55.8
45311;SHT31;68264;51.540;5.854;2023-07-30T16:34:47;20.9;55.1
45311;SHT31;68264;51.540;5.854;2023-07-30T16:49:15;20.5;57.5
45311;SHT31;68264;51.540;5.854;2023-07-30T17:03:34;20.3;60.8
45311;SHT31;68264;51.540;5.854;2023-07-30T17:17:33;19.5;68.3
45311;SHT31;68264;51.540;5.854;2023-07-30T17:32:01;18.0;78.3
45311;SHT31;68264;51.540;5.854;2023-07-30T17:47:22;17.4;81.5
45311;SHT31;68264;51.540;5.854;2023-07-30T18:02:50;17.2;84.5
45311;SHT31;68264;51.540;5.854;2023-07-30T18:18:43;16.8;88.0
45311;SHT31;68264;51.540;5.854;2023-07-30T18:35:46;16.6;90.2
45311;SHT31;68264;51.540;5.854;2023-07-30T18:51:16;16.4;91.3
45311;SHT31;68264;51.540;5.854;2023-07-30T19:05:15;16.3;92.7
45311;SHT31;68264;51.540;5.854;2023-07-30T19:19:43;16.2;93.5
45311;SHT31;68264;51.540;5.854;2023-07-30T19:34:02;15.9;93.9
45311;SHT31;68264;51.540;5.854;2023-07-30T19:49:03;15.9;94.6
45311;SHT31;68264;51.540;5.854;2023-07-30T20:04:02;15.7;94.2
45311;SHT31;68264;51.540;5.854;2023-07-30T20:18:01;15.7;95.3
45311;SHT31;68264;51.540;5.854;2023-07-30T20:32:00;15.7;95.1
45311;SHT31;68264;51.540;5.854;2023-07-30T20:46:28;15.5;94.3
45311;SHT31;68264;51.540;5.854;2023-07-30T21:01:17;15.4;94.2
45311;SHT31;68264;51.540;5.854;2023-07-30T21:15:36;15.3;94.7
45311;SHT31;68264;51.540;5.854;2023-07-30T21:29:35;15.4;94.9
45311;SHT31;68264;51.540;5.854;2023-07-30T21:43:34;15.4;95.2
45311;SHT31;68264;51.540;5.854;2023-07-30T21:57:33;15.4;95.4
45311;SHT31;68264;51.540;5.854;2023-07-30T22:11:32;15.3;95.0
45311;SHT31;68264;51.540;5.854;2023-07-30T22:42:34;15.3;96.1
45311;SHT31;68264;51.540;5.854;2023-07-30T22:56:33;15.8;96.9
45311;SHT31;68264;51.540;5.854;2023-07-30T23:11:01;16.2;96.6
45311;SHT31;68264;51.540;5.854;2023-07-30T23:25:21;16.3;96.0
45311;SHT31;68264;51.540;5.854;2023-07-30T23:39:20;16.3;95.3
45311;SHT31;68264;51.540;5.854;2023-07-30T23:53:48;16.5;94.2
